Time;durP1;ratioP1;P1;durP2;ratioP2;P2;SDS_P1;SDS_P2;PMS_P1;PMS_P2;Temp;Humidity;BMP_temperature;BMP_pressure;BME280_temperature;BME280_humidity;BME280_pressure;Samples;Min_cycle;Max_cycle;Signal;HPM_P1;HPM_P2
2023/03/31 00:01:56;;;;;;;7.90;5.70;;;;;;;5.69;68.08;97063.20;110408;1241;68601;-65
2023/03/31 00:04:27;;;;;;;9.40;6.80;;;;;;;5.64;69.38;97062.26;110572;1241;69308;-65
2023/03/31 00:06:57;;;;;;;10.00;5.70;;;;;;;5.56;71.69;97057.88;110497;1241;58855;-65
2023/03/31 00:09:28;;;;;;;8.40;5.80;;;;;;;5.52;70.98;97060.40;110294;1242;58896;-65
2023/03/31 00:11:58;;;;;;;7.00;4.90;;;;;;;5.45;75.21;97062.71;110572;1242;69777;-64
2023/03/31 00:14:28;;;;;;;6.50;5.10;;;;;;;5.37;76.93;97062.99;110545;1242;68314;-64
2023/03/31 00:17:00;;;;;;;7.30;4.90;;;;;;;5.25;78.04;97060.71;110354;1238;69317;-65
2023/03/31 00:19:32;;;;;;;7.00;4.90;;;;;;;5.17;77.42;97053.80;110522;1243;58867;-65
2023/03/31 00:22:01;;;;;;;8.50;5.70;;;;;;;5.09;76.95;97052.27;110513;1241;58906;-66
2023/03/31 00:24:33;;;;;;;7.00;5.40;;;;;;;5.04;78.36;97047.42;110615;1240;70385;-64
2023/03/31 00:27:04;;;;;;;6.70;5.60;;;;;;;5.00;76.87;97042.27;110544;1238;68338;-65
2023/03/31 00:29:40;;;;;;;8.30;5.60;;;;;;;4.98;78.98;97043.11;110403;1241;69876;-64
2023/03/31 00:32:10;;;;;;;5.90;4.90;;;;;;;4.94;81.11;97043.99;110593;1240;58827;-64
2023/03/31 00:34:40;;;;;;;8.00;6.00;;;;;;;4.90;82.23;97043.88;110508;1240;58930;-66
2023/03/31 00:37:13;;;;;;;9.60;6.40;;;;;;;4.85;81.12;97038.81;110489;1241;69649;-65
2023/03/31 00:39:43;;;;;;;8.80;6.00;;;;;;;4.75;83.42;97038.34;110485;1241;68746;-67
2023/03/31 00:42:13;;;;;;;9.40;6.50;;;;;;;4.68;84.01;97033.17;110454;1247;69665;-65
2023/03/31 00:45:08;;;;;;;8.50;6.20;;;;;;;4.62;82.52;97032.65;110548;1247;58945;-65
2023/03/31 00:47:55;;;;;;;6.10;4.90;;;;;;;4.53;85.42;97038.14;110305;1243;58821;-65
2023/03/31 00:50:29;;;;;;;8.10;6.40;;;;;;;4.53;83.61;97040.20;110418;1241;70570;-65
2023/03/31 00:53:11;;;;;;;8.90;5.80;;;;;;;4.52;83.52;97037.54;110589;1240;68542;-65
2023/03/31 00:55:53;;;;;;;6.80;5.50;;;;;;;4.53;79.60;97038.34;110488;1242;69139;-65
2023/03/31 00:58:32;;;;;;;7.10;4.90;;;;;;;4.52;79.08;97031.81;110349;1241;58840;-65
2023/03/31 01:01:05;;;;;;;8.50;6.80;;;;;;;4.51;75.34;97027.38;110315;1240;58978;-64
2023/03/31 01:03:38;;;;;;;8.20;6.00;;;;;;;4.48;82.78;97020.16;110561;1241;69803;-64
2023/03/31 01:06:11;;;;;;;12.70;9.50;;;;;;;4.42;89.26;97016.70;110218;1241;69255;-65
2023/03/31 01:08:43;;;;;;;11.90;8.40;;;;;;;4.36;88.02;97006.98;110238;1252;69116;-63
2023/03/31 01:11:19;;;;;;;11.10;7.50;;;;;;;4.31;89.94;96999.86;110344;1241;58935;-66
2023/03/31 01:13:54;;;;;;;11.10;8.10;;;;;;;4.25;91.33;96990.14;110342;1241;58929;-65
2023/03/31 01:16:26;;;;;;;9.70;7.40;;;;;;;4.23;93.23;96988.20;110428;1241;70727;-65
2023/03/31 01:18:58;;;;;;;11.70;7.10;;;;;;;4.23;89.58;96988.38;110365;1242;68470;-64
2023/03/31 01:21:33;;;;;;;10.30;7.40;;;;;;;4.23;86.44;96988.56;110237;1242;68352;-65
2023/03/31 01:24:19;;;;;;;10.30;6.00;;;;;;;4.18;84.91;96996.59;110343;1242;58919;-65
2023/03/31 01:27:21;;;;;;;8.50;6.00;;;;;;;4.09;90.27;96998.94;110338;1242;58865;-64
2023/03/31 01:29:53;;;;;;;12.00;7.20;;;;;;;4.07;94.32;96994.91;110491;1244;71165;-64
2023/03/31 01:32:47;;;;;;;8.40;5.90;;;;;;;4.08;94.19;96984.89;110313;1241;69252;-65
2023/03/31 01:35:41;;;;;;;9.40;6.80;;;;;;;4.08;93.67;96981.23;110451;1240;68571;-64
2023/03/31 01:38:30;;;;;;;11.70;7.60;;;;;;;4.08;96.98;96979.20;110334;1241;58938;-65
2023/03/31 01:41:47;;;;;;;10.40;7.60;;;;;;;4.07;99.06;96980.26;110286;1242;58931;-65
2023/03/31 01:44:26;;;;;;;9.40;6.90;;;;;;;4.03;97.27;96977.54;110398;1242;70624;-65
2023/03/31 01:47:07;;;;;;;11.80;7.70;;;;;;;4.00;96.62;96974.60;110418;1241;69045;-64
2023/03/31 01:49:53;;;;;;;8.50;6.60;;;;;;;3.96;98.05;96968.58;110388;1241;68342;-65
2023/03/31 01:52:34;;;;;;;8.50;6.60;;;;;;;3.96;96.42;96959.27;110282;1242;58916;-65
2023/03/31 01:55:33;;;;;;;8.20;6.70;;;;;;;3.97;94.74;96955.61;110443;1241;58853;-65
2023/03/31 01:58:26;;;;;;;6.60;5.60;;;;;;;3.99;94.80;96949.33;110495;1248;69687;-65
2023/03/31 02:01:14;;;;;;;8.10;6.20;;;;;;;3.99;93.63;96941.73;110317;1242;69257;-65
2023/03/31 02:03:52;;;;;;;6.10;5.00;;;;;;;4.01;93.33;96939.38;110470;1243;68513;-64
2023/03/31 02:06:30;;;;;;;7.00;5.10;;;;;;;4.01;88.57;96928.20;110586;1241;58917;-64
2023/03/31 02:09:09;;;;;;;6.40;5.40;;;;;;;4.00;86.90;96922.89;110252;1243;58875;-65
2023/03/31 02:11:43;;;;;;;8.40;6.30;;;;;;;3.97;89.79;96921.51;110351;1239;70454;-64
2023/03/31 02:14:18;;;;;;;7.50;6.10;;;;;;;3.96;89.42;96914.13;110526;1241;68556;-65
2023/03/31 02:16:57;;;;;;;7.50;5.80;;;;;;;3.94;93.20;96911.27;110561;1241;69303;-63
2023/03/31 02:19:33;;;;;;;7.70;5.90;;;;;;;3.93;93.77;96900.85;110571;1242;59049;-65
2023/03/31 02:22:08;;;;;;;9.30;6.30;;;;;;;3.94;92.99;96899.92;110311;1242;58937;-65
2023/03/31 02:24:39;;;;;;;8.10;5.70;;;;;;;3.92;91.70;96893.33;110587;1240;70712;-65
2023/03/31 02:27:27;;;;;;;8.20;6.10;;;;;;;3.88;92.97;96893.55;110490;1238;69064;-65
2023/03/31 02:30:02;;;;;;;10.40;6.40;;;;;;;3.86;93.58;96893.48;110394;1239;69632;-65
2023/03/31 02:32:39;;;;;;;7.60;6.00;;;;;;;3.84;92.27;96894.42;110316;1242;58878;-65
2023/03/31 02:35:16;;;;;;;7.30;5.20;;;;;;;3.83;92.69;96891.89;110309;1242;58931;-65
2023/03/31 02:37:48;;;;;;;6.50;4.90;;;;;;;3.84;90.99;96891.36;110473;1241;70729;-64
2023/03/31 02:40:21;;;;;;;7.00;5.20;;;;;;;3.85;90.10;96887.86;110519;1241;68432;-65
2023/03/31 02:42:50;;;;;;;7.50;5.10;;;;;;;3.84;87.11;96887.04;110330;1242;69892;-65
2023/03/31 02:45:52;;;;;;;7.20;5.00;;;;;;;3.82;87.56;96887.46;110500;1241;58898;-65
2023/03/31 02:48:29;;;;;;;7.70;5.70;;;;;;;3.80;85.00;96884.29;110000;1248;58892;-65
2023/03/31 02:51:07;;;;;;;7.80;5.30;;;;;;;3.77;86.74;96882.04;110288;1243;69915;-65
2023/03/31 02:54:13;;;;;;;7.20;5.40;;;;;;;3.77;86.91;96885.14;110445;1241;69175;-64
2023/03/31 02:57:12;;;;;;;8.20;5.30;;;;;;;3.78;84.46;96880.47;110340;1241;69135;-65
2023/03/31 03:00:09;;;;;;;8.80;6.40;;;;;;;3.77;83.67;96873.96;110276;1241;58937;-65
2023/03/31 03:02:50;;;;;;;9.20;5.70;;;;;;;3.75;84.47;96872.16;110292;1242;58885;-64
2023/03/31 03:05:33;;;;;;;6.80;4.70;;;;;;;3.75;83.28;96877.52;110242;1242;68845;-65
2023/03/31 03:08:49;;;;;;;5.60;4.60;;;;;;;3.74;82.32;96875.83;110483;1241;69639;-65
2023/03/31 03:11:45;;;;;;;7.90;5.00;;;;;;;3.72;84.09;96873.21;110362;1241;69185;-65
2023/03/31 03:14:30;;;;;;;6.50;5.00;;;;;;;3.70;82.38;96871.06;110462;1241;58861;-64
2023/03/31 03:17:20;;;;;;;9.00;5.80;;;;;;;3.69;83.13;96868.38;110433;1242;58937;-65
2023/03/31 03:19:57;;;;;;;7.80;5.60;;;;;;;3.65;82.78;96866.83;110434;1241;69896;-65
2023/03/31 03:22:27;;;;;;;7.00;5.30;;;;;;;3.63;87.20;96861.62;110407;1241;69121;-65
2023/03/31 03:24:57;;;;;;;8.40;5.40;;;;;;;3.64;89.66;96859.68;110441;1241;67804;-65
2023/03/31 03:27:27;;;;;;;8.70;6.40;;;;;;;3.66;86.33;96856.48;110374;1241;58945;-65
2023/03/31 03:29:57;;;;;;;;;;;;;;;3.62;88.14;96848.21;110582;1241;58913;-65
2023/03/31 03:32:28;;;;;;;6.00;5.00;;;;;;;3.60;86.37;96845.94;110418;1241;70564;-65
2023/03/31 03:34:58;;;;;;;9.30;6.40;;;;;;;3.57;88.04;96844.35;110467;1241;69175;-65
2023/03/31 03:37:28;;;;;;;10.00;6.40;;;;;;;3.54;87.60;96838.98;110362;1241;69287;-64
2023/03/31 03:39:59;;;;;;;8.60;6.60;;;;;;;3.53;87.86;96832.85;110447;1240;58895;-64
2023/03/31 03:42:29;;;;;;;;;;;;;;;3.52;90.68;96832.23;110502;1241;58820;-64
2023/03/31 03:45:00;;;;;;;10.00;6.00;;;;;;;3.50;88.10;96828.04;110549;1241;68756;-64
2023/03/31 03:47:29;;;;;;;6.60;5.80;;;;;;;3.48;87.98;96823.79;110544;1242;69304;-64
2023/03/31 03:49:59;;;;;;;6.40;4.70;;;;;;;3.47;88.75;96825.08;110340;1241;69273;-64
2023/03/31 03:52:28;;;;;;;6.00;4.60;;;;;;;3.46;88.51;96825.48;110476;1241;58924;-64
2023/03/31 03:54:57;;;;;;;6.90;5.60;;;;;;;3.44;87.36;96820.41;110494;1241;58883;-64
2023/03/31 03:57:27;;;;;;;6.90;4.90;;;;;;;3.44;88.23;96817.68;110377;1241;71209;-64
2023/03/31 03:59:57;;;;;;;7.70;5.30;;;;;;;3.41;88.02;96811.29;110374;1242;69828;-64
2023/03/31 04:02:27;;;;;;;7.70;5.70;;;;;;;3.39;90.16;96805.18;110260;1242;68537;-64
2023/03/31 04:04:57;;;;;;;8.80;6.10;;;;;;;3.36;92.57;96800.19;110294;1241;58868;-64
2023/03/31 04:07:27;;;;;;;7.30;5.70;;;;;;;3.36;95.51;96798.96;110452;1241;58872;-64
2023/03/31 04:09:56;;;;;;;7.40;5.50;;;;;;;3.38;92.70;96797.33;110524;1241;70547;-64
2023/03/31 04:12:25;;;;;;;7.80;6.00;;;;;;;3.40;95.77;96788.80;110351;1241;69820;-64
2023/03/31 04:14:55;;;;;;;8.60;6.40;;;;;;;3.42;93.30;96783.00;110366;1241;69974;-64
2023/03/31 04:17:31;;;;;;;9.90;6.70;;;;;;;3.42;98.68;96782.64;110359;1241;58896;-64
2023/03/31 04:20:04;;;;;;;12.80;7.60;;;;;;;3.46;99.07;96781.23;110198;1240;58853;-64
2023/03/31 04:22:34;;;;;;;9.40;7.50;;;;;;;3.49;99.36;96781.21;110325;1241;70680;-64
2023/03/31 04:25:13;;;;;;;13.60;8.90;;;;;;;3.52;94.91;96784.14;110452;1241;69819;-64
2023/03/31 04:27:49;;;;;;;9.20;6.00;;;;;;;3.55;92.57;96780.88;110414;1240;68302;-65
2023/03/31 04:30:22;;;;;;;9.40;6.60;;;;;;;3.53;92.62;96779.23;110483;1241;58854;-65
2023/03/31 04:32:55;;;;;;;8.70;6.50;;;;;;;3.51;95.20;96777.64;110490;1240;58882;-65
2023/03/31 04:35:27;;;;;;;8.00;6.50;;;;;;;3.51;96.19;96779.03;110559;1248;70023;-65
2023/03/31 04:37:59;;;;;;;8.70;6.50;;;;;;;3.52;97.35;96777.78;110479;1248;69868;-65
2023/03/31 04:40:28;;;;;;;8.60;5.90;;;;;;;3.54;100.00;96777.68;110506;1241;69133;-65
2023/03/31 04:42:57;;;;;;;9.00;6.80;;;;;;;3.56;96.29;96773.94;110404;1241;58937;-65
2023/03/31 04:45:27;;;;;;;9.10;6.10;;;;;;;3.56;94.14;96771.70;110341;1241;58867;-65
2023/03/31 04:47:57;;;;;;;9.80;7.00;;;;;;;3.57;99.00;96776.95;110474;1241;71157;-65
2023/03/31 04:50:27;;;;;;;9.30;6.30;;;;;;;3.61;99.68;96773.18;110504;1241;68843;-65
2023/03/31 04:52:55;;;;;;;9.90;6.30;;;;;;;3.63;98.60;96774.27;110463;1240;69210;-65
2023/03/31 04:55:25;;;;;;;7.50;6.30;;;;;;;3.65;99.94;96775.69;110412;1248;58890;-65
2023/03/31 04:57:54;;;;;;;7.50;6.10;;;;;;;3.67;100.00;96778.02;110329;1241;58867;-65
2023/03/31 05:00:24;;;;;;;10.30;7.10;;;;;;;3.66;100.00;96771.02;110320;1242;70441;-64
2023/03/31 05:02:54;;;;;;;10.30;6.90;;;;;;;3.67;98.64;96773.54;110339;1241;69373;-65
2023/03/31 05:05:24;;;;;;;9.60;7.00;;;;;;;3.68;99.83;96776.03;110442;1243;69882;-65
2023/03/31 05:07:53;;;;;;;6.40;5.10;;;;;;;3.70;99.98;96774.35;110478;1242;59246;-65
2023/03/31 05:10:24;;;;;;;9.40;7.30;;;;;;;3.72;97.47;96770.10;110521;1246;58854;-64
2023/03/31 05:12:53;;;;;;;10.60;8.70;;;;;;;3.76;100.00;96772.84;110566;1240;71154;-66
2023/03/31 05:15:23;;;;;;;11.90;8.40;;;;;;;3.77;100.00;96771.88;110398;1240;69232;-65
2023/03/31 05:17:52;;;;;;;9.80;7.80;;;;;;;3.80;100.00;96772.27;110419;1241;68889;-63
2023/03/31 05:20:21;;;;;;;10.60;7.30;;;;;;;3.83;100.00;96771.40;110018;1239;651296;-65
2023/03/31 05:22:51;;;;;;;11.20;8.80;;;;;;;3.85;100.00;96772.65;110467;1241;58935;-65
2023/03/31 05:25:19;;;;;;;10.80;8.90;;;;;;;3.87;100.00;96771.19;110524;1240;70566;-65
2023/03/31 05:27:49;;;;;;;10.50;8.40;;;;;;;3.87;99.77;96764.27;110412;1242;68571;-64
2023/03/31 05:30:19;;;;;;;11.80;9.60;;;;;;;3.88;99.11;96764.08;110528;1240;69252;-64
2023/03/31 05:32:48;;;;;;;12.70;9.40;;;;;;;3.88;100.00;96763.01;110320;1248;58893;-64
2023/03/31 05:35:18;;;;;;;13.40;9.60;;;;;;;3.89;100.00;96761.59;110517;1241;58872;-64
2023/03/31 05:37:47;;;;;;;14.10;10.00;;;;;;;3.91;100.00;96760.77;110422;1240;70533;-65
2023/03/31 05:40:16;;;;;;;14.10;10.20;;;;;;;3.93;100.00;96761.38;110490;1241;69294;-65
2023/03/31 05:42:44;;;;;;;10.00;8.00;;;;;;;3.94;99.38;96757.19;110536;1242;69850;-66
2023/03/31 05:45:14;;;;;;;12.20;9.10;;;;;;;3.93;98.74;96755.69;110461;1247;58918;-67
2023/03/31 05:47:43;;;;;;;12.20;9.70;;;;;;;3.93;100.00;96757.59;110324;1244;58964;-66
2023/03/31 05:50:12;;;;;;;10.90;9.10;;;;;;;3.93;99.15;96749.12;110420;1242;69875;-66
2023/03/31 05:52:42;;;;;;;;;;;;;;;3.94;96.31;96748.54;110561;1240;69240;-66
2023/03/31 05:55:12;;;;;;;14.70;10.60;;;;;;;3.93;98.63;96753.27;110456;1238;69383;-65
2023/03/31 05:57:40;;;;;;;12.70;9.70;;;;;;;3.95;100.00;96748.98;110541;1241;58986;-65
2023/03/31 06:00:10;;;;;;;16.40;11.10;;;;;;;3.98;100.00;96745.20;110535;1239;58875;-66
2023/03/31 06:02:40;;;;;;;13.40;10.70;;;;;;;4.01;100.00;96745.38;110607;1241;69826;-67
2023/03/31 06:05:09;;;;;;;13.00;10.50;;;;;;;4.05;100.00;96744.78;110458;1242;69539;-66
2023/03/31 06:07:38;;;;;;;16.50;12.10;;;;;;;4.08;100.00;96745.65;110494;1240;69243;-65
2023/03/31 06:10:09;;;;;;;15.70;12.50;;;;;;;4.09;100.00;96748.03;110541;1241;58882;-65
2023/03/31 06:12:46;;;;;;;13.80;10.20;;;;;;;4.12;100.00;96744.41;110399;1241;58856;-64
2023/03/31 06:15:15;;;;;;;15.30;11.00;;;;;;;4.17;100.00;96740.55;110571;1239;70916;-64
2023/03/31 06:17:44;;;;;;;14.20;9.90;;;;;;;4.21;100.00;96738.56;110560;1241;69828;-64
2023/03/31 06:20:13;;;;;;;12.40;8.40;;;;;;;4.23;100.00;96735.19;110448;1240;68300;-65
2023/03/31 06:22:55;;;;;;;12.00;9.40;;;;;;;4.28;100.00;96736.05;110667;1241;58895;-65
2023/03/31 06:25:24;;;;;;;13.70;9.70;;;;;;;4.30;99.64;96733.89;110453;1242;58875;-66
2023/03/31 06:27:53;;;;;;;13.90;12.00;;;;;;;4.31;99.33;96733.10;110478;1241;70978;-65
2023/03/31 06:30:22;;;;;;;19.80;13.30;;;;;;;4.35;100.00;96734.14;110538;1238;69563;-66
2023/03/31 06:32:51;;;;;;;16.60;12.90;;;;;;;4.39;100.00;96742.38;110469;1242;69789;-66
2023/03/31 06:35:20;;;;;;;16.60;12.50;;;;;;;4.44;100.00;96747.08;110419;1240;58866;-66
2023/03/31 06:37:49;;;;;;;19.30;12.80;;;;;;;4.50;100.00;96752.52;110319;1241;58887;-66
2023/03/31 06:40:18;;;;;;;22.60;14.10;;;;;;;4.57;100.00;96752.66;110302;1240;70208;-66
2023/03/31 06:42:47;;;;;;;25.80;15.80;;;;;;;4.60;100.00;96754.02;110460;1241;69585;-66
2023/03/31 06:45:17;;;;;;;;;;;;;;;4.64;100.00;96749.16;110598;1241;69733;-63
2023/03/31 06:47:46;;;;;;;16.20;10.60;;;;;;;4.67;99.84;96744.81;110551;1241;58885;-64
2023/03/31 06:50:16;;;;;;;14.40;9.50;;;;;;;4.70;98.95;96744.50;110497;1238;58993;-70
2023/03/31 06:52:45;;;;;;;12.30;8.60;;;;;;;4.72;99.20;96746.26;110474;1240;71131;-65
2023/03/31 06:55:15;;;;;;;10.30;8.30;;;;;;;4.74;99.89;96745.28;110394;1241;69803;-64
2023/03/31 06:57:44;;;;;;;10.20;7.70;;;;;;;4.76;99.98;96745.13;110427;1241;68299;-66
2023/03/31 07:00:14;;;;;;;10.00;7.10;;;;;;;4.77;99.15;96742.83;110326;1241;58956;-65
2023/03/31 07:02:43;;;;;;;8.90;6.60;;;;;;;4.78;97.34;96743.49;110444;1241;58886;-68
2023/03/31 07:05:13;;;;;;;9.70;6.20;;;;;;;4.77;95.94;96740.75;110433;1240;70588;-66
2023/03/31 07:07:41;;;;;;;9.10;6.60;;;;;;;4.74;98.17;96747.85;110331;1241;68158;-66
2023/03/31 07:10:15;;;;;;;9.80;6.80;;;;;;;4.74;97.60;96750.63;110410;1247;69843;-66
2023/03/31 07:12:44;;;;;;;9.20;6.00;;;;;;;4.73;98.99;96753.61;110394;1238;58876;-66
2023/03/31 07:15:13;;;;;;;8.50;6.30;;;;;;;4.76;96.62;96749.98;110522;1241;58931;-66
2023/03/31 07:17:42;;;;;;;10.60;7.60;;;;;;;4.76;96.11;96744.27;110168;1243;69908;-65
2023/03/31 07:20:14;;;;;;;10.10;7.10;;;;;;;4.74;96.29;96756.27;110335;1244;68480;-66
2023/03/31 07:22:45;;;;;;;9.20;7.50;;;;;;;4.75;99.71;96760.73;110414;1238;69265;-67
2023/03/31 07:25:17;;;;;;;11.90;8.20;;;;;;;4.76;98.91;96751.02;110395;1238;58931;-66
2023/03/31 07:27:46;;;;;;;13.00;9.40;;;;;;;4.76;97.22;96748.44;110242;1242;58872;-65
2023/03/31 07:30:17;;;;;;;17.50;11.50;;;;;;;4.76;98.76;96745.13;110537;1242;70081;-65
2023/03/31 07:32:48;;;;;;;14.70;9.30;;;;;;;4.78;95.98;96738.59;110469;1241;70074;-66
2023/03/31 07:35:18;;;;;;;10.80;7.60;;;;;;;4.79;95.63;96739.08;110418;1240;69114;-66
2023/03/31 07:37:47;;;;;;;;;;;;;;;4.81;95.60;96738.13;110438;1242;58931;-66
2023/03/31 07:40:25;;;;;;;7.90;5.90;;;;;;;4.82;97.12;96740.32;110485;1238;58880;-66
2023/03/31 07:42:54;;;;;;;9.30;7.40;;;;;;;4.86;95.57;96739.55;110399;1240;70108;-66
2023/03/31 07:45:26;;;;;;;11.50;8.70;;;;;;;4.89;97.05;96739.39;110455;1238;69080;-66
2023/03/31 07:47:55;;;;;;;8.30;7.20;;;;;;;5.04;100.00;96744.16;110425;1240;69306;-66
2023/03/31 07:50:24;;;;;;;11.00;7.60;;;;;;;5.19;100.00;96741.87;110451;1241;58870;-65
2023/03/31 07:52:54;;;;;;;;;;;;;;;5.43;100.00;96748.80;110200;1243;58929;-66
2023/03/31 07:55:25;;;;;;;7.10;5.40;;;;;;;6.01;100.00;96750.14;110347;1238;71153;-65
2023/03/31 07:57:54;;;;;;;7.50;6.40;;;;;;;6.52;100.00;96747.44;110525;1242;69304;-65
2023/03/31 08:00:23;;;;;;;11.60;7.40;;;;;;;6.70;98.13;96747.99;110465;1241;68604;-65
2023/03/31 08:02:52;;;;;;;9.10;7.00;;;;;;;6.99;97.21;96747.20;110377;1241;58985;-64
2023/03/31 08:05:21;;;;;;;10.10;6.30;;;;;;;7.04;94.27;96747.40;110486;1241;58865;-65
2023/03/31 08:07:50;;;;;;;7.70;5.80;;;;;;;7.12;94.43;96743.06;110467;1247;70540;-66
2023/03/31 08:10:24;;;;;;;8.90;6.00;;;;;;;7.31;93.48;96742.38;110493;1241;70007;-66
2023/03/31 08:12:54;;;;;;;8.60;6.70;;;;;;;7.34;92.70;96743.22;110281;1244;68456;-66
2023/03/31 08:15:23;;;;;;;;;;;;;;;7.22;91.25;96741.15;110449;1242;58860;-66
2023/03/31 08:17:52;;;;;;;7.60;5.70;;;;;;;6.96;92.69;96741.57;110509;1241;58915;-67
2023/03/31 08:20:21;;;;;;;8.90;7.00;;;;;;;6.77;93.04;96743.02;110476;1241;70503;-66
2023/03/31 08:22:50;;;;;;;9.80;7.50;;;;;;;6.59;95.58;96742.34;110352;1241;69088;-66
2023/03/31 08:25:20;;;;;;;10.40;7.30;;;;;;;6.62;98.93;96745.77;110398;1241;69887;-65
2023/03/31 08:27:50;;;;;;;10.70;7.10;;;;;;;6.57;98.80;96748.02;110515;1242;58947;-66
2023/03/31 08:30:19;;;;;;;9.60;7.40;;;;;;;6.58;97.11;96749.16;110564;1241;58865;-67
2023/03/31 08:32:48;;;;;;;11.00;8.00;;;;;;;6.57;97.85;96748.33;110556;1238;70084;-70
2023/03/31 08:35:18;;;;;;;11.00;6.40;;;;;;;6.67;97.70;96746.31;110594;1241;69672;-70
2023/03/31 08:37:47;;;;;;;12.50;7.80;;;;;;;6.67;95.85;96747.65;110571;1241;69863;-75
2023/03/31 08:40:22;;;;;;;11.10;8.40;;;;;;;6.68;98.53;96751.23;110615;1241;58859;-69
2023/03/31 08:43:05;;;;;;;9.40;7.60;;;;;;;6.76;98.67;96746.73;110464;1240;58931;-72
2023/03/31 08:45:38;;;;;;;11.90;8.80;;;;;;;6.85;98.31;96742.44;110600;1241;70396;-74
2023/03/31 08:48:16;;;;;;;12.90;8.80;;;;;;;6.87;98.29;96747.13;110490;1241;69850;-73
2023/03/31 08:50:52;;;;;;;11.10;7.90;;;;;;;6.92;98.13;96745.82;110441;1241;69697;-64
2023/03/31 08:53:42;;;;;;;10.20;8.30;;;;;;;6.97;97.78;96745.09;110345;1241;58899;-69
2023/03/31 08:56:22;;;;;;;9.90;7.70;;;;;;;6.97;96.57;96750.33;110465;1241;58903;-69
2023/03/31 08:58:51;;;;;;;12.20;9.00;;;;;;;6.86;96.57;96748.14;110642;1241;71173;-66
2023/03/31 09:01:32;;;;;;;14.90;10.10;;;;;;;6.78;99.52;96748.12;110567;1241;69237;-70
2023/03/31 09:04:29;;;;;;;11.10;9.10;;;;;;;6.82;99.41;96751.65;110515;1241;69714;-69
2023/03/31 09:07:10;;;;;;;9.60;7.10;;;;;;;6.86;100.00;96748.27;110556;1241;58957;-65
2023/03/31 09:09:51;;;;;;;10.10;7.20;;;;;;;6.90;99.99;96749.20;110456;1242;58870;-74
2023/03/31 09:12:33;;;;;;;9.90;7.90;;;;;;;6.95;98.82;96754.11;110426;1241;70569;-74
2023/03/31 09:15:10;;;;;;;8.60;7.00;;;;;;;7.04;99.49;96752.08;110426;1241;69050;-74
2023/03/31 09:17:46;;;;;;;10.10;8.10;;;;;;;7.46;99.08;96748.26;110531;1241;69473;-75
2023/03/31 09:20:15;;;;;;;11.80;7.20;;;;;;;7.87;95.79;96749.35;110452;1238;58926;-76
2023/03/31 09:22:52;;;;;;;12.10;8.40;;;;;;;8.18;94.50;96749.88;110530;1242;58833;-75
2023/03/31 09:25:29;;;;;;;10.30;7.70;;;;;;;8.36;92.46;96751.70;110393;1241;71101;-77
2023/03/31 09:28:01;;;;;;;20.90;10.10;;;;;;;8.43;91.52;96751.29;110360;1241;69846;-77
2023/03/31 09:30:34;;;;;;;13.20;8.80;;;;;;;8.54;92.12;96749.65;110355;1241;68307;-77
2023/03/31 09:33:34;;;;;;;14.60;8.50;;;;;;;8.75;91.01;96749.42;110491;1240;58890;-76
2023/03/31 09:36:15;;;;;;;12.10;8.70;;;;;;;8.88;90.01;96744.95;110256;1247;58932;-78
2023/03/31 09:38:46;;;;;;;13.50;8.70;;;;;;;8.98;89.01;96745.25;110487;1241;70571;-78
2023/03/31 09:41:17;;;;;;;15.20;8.60;;;;;;;8.96;89.75;96743.83;110289;1242;69667;-79
2023/03/31 09:43:48;;;;;;;12.10;8.30;;;;;;;9.09;89.26;96740.89;110523;1241;69330;-78
2023/03/31 09:46:32;;;;;;;9.40;7.30;;;;;;;9.12;88.59;96736.68;110641;1241;58939;-78
2023/03/31 09:49:05;;;;;;;13.10;9.60;;;;;;;9.01;88.15;96739.98;110838;1239;59256;-78
2023/03/31 09:51:37;;;;;;;15.20;11.10;;;;;;;8.93;89.18;96736.09;110472;1242;70395;-79
2023/03/31 09:54:23;;;;;;;14.50;10.80;;;;;;;8.88;90.44;96734.71;110601;1241;69428;-79
2023/03/31 09:56:52;;;;;;;16.10;12.40;;;;;;;8.76;90.32;96733.04;110487;1241;67341;-78
2023/03/31 09:59:31;;;;;;;16.00;10.70;;;;;;;8.63;92.81;96732.92;110447;1242;58934;-77
2023/03/31 10:02:20;;;;;;;14.30;10.10;;;;;;;8.67;91.37;96727.08;110662;1240;59332;-78
2023/03/31 10:04:49;;;;;;;12.10;9.90;;;;;;;8.69;91.99;96726.78;110513;1241;71169;-78
2023/03/31 10:07:22;;;;;;;17.30;11.60;;;;;;;8.73;90.97;96722.54;110692;1241;68072;-76
2023/03/31 10:09:53;;;;;;;15.30;13.10;;;;;;;8.79;91.86;96726.40;110586;1240;69879;-77
2023/03/31 10:12:26;;;;;;;18.80;14.50;;;;;;;8.72;89.73;96724.81;110552;1240;58940;-77
2023/03/31 10:15:17;;;;;;;17.20;14.10;;;;;;;8.61;89.74;96727.36;110581;1240;58902;-78
2023/03/31 10:17:46;;;;;;;18.70;14.90;;;;;;;8.50;89.37;96729.59;110639;1241;69615;-79
2023/03/31 10:20:40;;;;;;;16.30;12.30;;;;;;;8.36;90.43;96727.48;110520;1242;69373;-76
2023/03/31 10:23:21;;;;;;;14.60;10.70;;;;;;;8.47;94.44;96729.48;110488;1241;68913;-78
2023/03/31 10:25:50;;;;;;;15.70;12.60;;;;;;;8.70;95.10;96725.98;110674;1241;58935;-78
2023/03/31 10:28:21;;;;;;;16.80;12.30;;;;;;;8.91;94.06;96726.98;110636;1241;58825;-78
2023/03/31 10:31:02;;;;;;;14.80;12.50;;;;;;;8.99;92.64;96722.96;110696;1241;70651;-77
2023/03/31 10:33:33;;;;;;;15.10;12.30;;;;;;;8.80;92.43;96720.88;110577;1241;70099;-78
2023/03/31 10:36:14;;;;;;;14.10;12.30;;;;;;;8.81;93.19;96716.50;110408;1240;68232;-77
2023/03/31 10:38:46;;;;;;;20.90;16.50;;;;;;;8.74;95.29;96712.47;110595;1240;58945;-77
2023/03/31 10:41:25;;;;;;;18.40;14.50;;;;;;;8.59;95.77;96712.58;110554;1239;58883;-78
2023/03/31 10:43:56;;;;;;;18.10;14.90;;;;;;;8.58;96.98;96712.14;110632;1241;69703;-77
2023/03/31 10:46:48;;;;;;;17.10;14.40;;;;;;;8.53;96.69;96711.98;110687;1241;69203;-78
2023/03/31 10:49:20;;;;;;;20.70;17.10;;;;;;;8.44;96.26;96707.17;110504;1242;69257;-78
2023/03/31 10:51:52;;;;;;;21.50;17.20;;;;;;;8.40;95.87;96706.21;110661;1241;58940;-78
2023/03/31 10:54:21;;;;;;;22.40;16.50;;;;;;;8.44;96.94;96703.69;110607;1242;58819;-78
2023/03/31 10:57:03;;;;;;;25.30;19.40;;;;;;;8.42;98.84;96700.48;110762;1241;71176;-78
2023/03/31 10:59:50;;;;;;;22.80;18.50;;;;;;;8.49;98.18;96699.81;110668;1241;68574;-78
2023/03/31 11:02:48;;;;;;;20.10;16.60;;;;;;;8.60;96.62;96696.16;110558;1241;69098;-78
2023/03/31 11:05:24;;;;;;;21.40;16.70;;;;;;;8.52;97.85;96694.56;111199;1239;58876;-78
2023/03/31 11:08:13;;;;;;;17.30;13.50;;;;;;;8.50;97.84;96693.69;111839;1239;57959;-78
2023/03/31 11:10:59;;;;;;;17.00;13.50;;;;;;;8.46;98.44;96692.44;110679;1241;70139;-78
2023/03/31 11:14:02;;;;;;;17.80;13.00;;;;;;;8.40;98.60;96693.73;110660;1241;69194;-78
2023/03/31 11:16:52;;;;;;;15.60;12.70;;;;;;;8.46;96.69;96693.48;110639;1240;69851;-78
2023/03/31 11:19:48;;;;;;;16.10;12.20;;;;;;;8.52;97.64;96691.23;110521;1241;58858;-77
2023/03/31 11:22:25;;;;;;;16.80;11.20;;;;;;;8.64;96.41;96691.67;110598;1241;59322;-79
2023/03/31 11:25:15;;;;;;;14.20;10.80;;;;;;;8.74;94.04;96690.66;110694;1239;69833;-78
2023/03/31 11:28:11;;;;;;;14.50;11.30;;;;;;;8.80;94.14;96692.11;110563;1239;69196;-79
2023/03/31 11:30:52;;;;;;;15.20;11.40;;;;;;;8.82;95.01;96692.75;110506;1240;69247;-78
2023/03/31 11:33:44;;;;;;;16.50;11.50;;;;;;;8.98;94.73;96688.08;110478;1241;58905;-78
2023/03/31 11:36:31;;;;;;;15.40;12.50;;;;;;;9.10;94.64;96686.05;110573;1242;58873;-78
2023/03/31 11:39:25;;;;;;;17.40;12.40;;;;;;;9.13;93.87;96684.09;110533;1240;69508;-78
2023/03/31 11:42:01;;;;;;;17.50;12.40;;;;;;;9.10;93.48;96684.35;110630;1241;69222;-78
2023/03/31 11:44:41;;;;;;;18.50;13.10;;;;;;;9.07;95.25;96676.77;110293;1243;69762;-78
2023/03/31 11:47:16;;;;;;;16.60;12.50;;;;;;;9.18;94.19;96678.70;110433;1239;58884;-77
2023/03/31 11:49:55;;;;;;;18.40;13.10;;;;;;;9.45;93.83;96674.40;110451;1241;58874;-77
2023/03/31 11:52:32;;;;;;;19.40;13.00;;;;;;;9.80;92.89;96671.79;110461;1241;70428;-77
2023/03/31 11:55:17;;;;;;;16.60;12.80;;;;;;;9.86;91.76;96669.95;110494;1241;69207;-77
2023/03/31 11:57:49;;;;;;;19.30;14.10;;;;;;;9.99;91.16;96664.86;110268;1245;69926;-77
2023/03/31 12:00:21;;;;;;;17.90;13.40;;;;;;;10.10;91.06;96665.14;110474;1240;58883;-77
2023/03/31 12:03:26;;;;;;;18.70;12.50;;;;;;;10.22;90.12;96665.20;110313;1243;58898;-77
2023/03/31 12:06:02;;;;;;;20.40;13.90;;;;;;;10.49;89.01;96658.48;109603;1248;69687;-77